Knoxville, Texas
Current Conditions -  °F | °C
As of 8:15 AM on Thursday 18 Dec 2014 (Local Time) from KT82 Reporting Station
Moderate Fog Moderate Fog  
Wind Chill: 53°   Ceiling: 200
Heat Index: 53°   Visibility: 0.5mi
Dew Point: 53°   Wind: 0mph
Humidity: 99%   Direction: NA
Pressure: 30.12"   Gusts: NA
Location:  30.3145°N, 99.2255°W
Report Text: KT82 181415Z AUTO 00000KT 1/2SM FG OVC002 12/12 A3012 RMK AO2 T01160115
Loading
Personal Weather Stations






























Interactive Weather Map New forecast layout! Learn more

10-Day Weather Forecast

Advertisements
Track Severe Weather on mobile